Time;durP1;ratioP1;P1;durP2;ratioP2;P2;SDS_P1;SDS_P2;PMS_P1;PMS_P2;Temp;Humidity;BMP_temperature;BMP_pressure;BME280_temperature;BME280_humidity;BME280_pressure;Samples;Min_cycle;Max_cycle;Signal;HPM_P1;HPM_P2
2023/03/02 00:00:56;;;;;;;11.45;4.88;;;-2.20;99.90;;;-3.79;100.00;101757.25;4980077;28;20035;-78
2023/03/02 00:03:23;;;;;;;10.75;5.18;;;-2.10;99.90;;;-3.86;100.00;101763.06;4976826;28;20034;-78
2023/03/02 00:05:49;;;;;;;11.30;5.22;;;-2.10;99.90;;;-4.03;100.00;101748.97;4981038;28;20034;-78
2023/03/02 00:08:17;;;;;;;12.07;4.88;;;-2.20;99.90;;;-4.11;100.00;101752.13;4972659;28;20485;-78
2023/03/02 00:10:43;;;;;;;;;;;-2.30;99.90;;;-4.15;100.00;101761.22;4980298;28;20030;-78
2023/03/02 00:13:11;;;;;;;11.95;5.50;;;-2.40;99.90;;;-4.15;100.00;101761.22;4977180;28;19918;-78
2023/03/02 00:15:37;;;;;;;12.70;5.38;;;-2.40;99.90;;;-4.23;100.00;101748.38;4975709;28;20042;-78
2023/03/02 00:18:03;;;;;;;11.10;4.93;;;-2.50;99.90;;;-4.13;100.00;101763.81;4978342;28;20049;-78
2023/03/02 00:20:28;;;;;;;13.25;5.80;;;-2.50;99.90;;;-4.27;100.00;101752.16;5002598;28;20051;-78
2023/03/02 00:22:54;;;;;;;13.30;5.68;;;-2.50;99.90;;;-4.46;100.00;101763.06;4980456;28;20034;-77
2023/03/02 00:25:20;;;;;;;10.52;5.25;;;-2.70;99.90;;;-4.67;100.00;101767.88;4983976;28;20043;-77
2023/03/02 00:27:46;;;;;;;10.60;5.05;;;-2.90;99.90;;;-4.74;100.00;101770.03;4977189;28;20031;-77
2023/03/02 00:30:15;;;;;;;12.90;5.55;;;-3.10;99.90;;;-4.83;100.00;101778.56;4976550;28;20492;-77
2023/03/02 00:32:41;;;;;;;11.23;5.75;;;-3.20;99.90;;;-4.81;100.00;101777.50;4985618;28;20445;-77
2023/03/02 00:35:08;;;;;;;15.15;5.65;;;-3.20;99.90;;;-4.89;100.00;101761.13;4990516;28;20026;-77
2023/03/02 00:37:35;;;;;;;11.35;5.28;;;-3.30;99.90;;;-5.05;100.00;101762.00;4974836;28;20042;-77
2023/03/02 00:40:08;;;;;;;11.82;5.38;;;-3.40;99.90;;;-5.11;100.00;101766.84;4985829;28;20030;-78
2023/03/02 00:42:37;;;;;;;12.27;5.13;;;-3.40;99.90;;;-5.24;100.00;101762.19;4984964;28;20085;-76
2023/03/02 00:45:05;;;;;;;10.45;5.82;;;-3.50;99.90;;;-5.27;100.00;101767.69;4970145;28;20466;-77
2023/03/02 00:47:34;;;;;;;15.70;6.10;;;-3.60;99.90;;;-5.31;100.00;101759.94;4981554;28;20062;-78
2023/03/02 00:50:01;;;;;;;11.73;5.47;;;-3.60;99.90;;;-5.38;100.00;101762.97;4973176;28;20137;-76
2023/03/02 00:52:29;;;;;;;11.73;5.97;;;-3.70;99.90;;;-5.28;100.00;101763.31;4969691;28;20038;-77
2023/03/02 00:54:55;;;;;;;10.23;5.40;;;-3.60;99.90;;;-5.28;100.00;101763.31;4977498;28;20065;-77
2023/03/02 00:57:21;;;;;;;15.10;6.22;;;-3.70;99.90;;;-5.25;100.00;101765.78;4982278;28;20070;-77
2023/03/02 00:59:47;;;;;;;12.88;6.15;;;-3.70;99.90;;;-5.24;100.00;101761.34;4979001;28;20035;-78
2023/03/02 01:02:31;;;;;;;11.82;5.65;;;-3.70;99.90;;;-5.34;100.00;101761.84;4970675;28;20521;-77
2023/03/02 01:04:57;;;;;;;11.23;5.70;;;-3.70;99.90;;;-5.37;100.00;101761.16;4974069;28;20064;-77
2023/03/02 01:07:27;;;;;;;11.27;5.60;;;-3.80;99.90;;;-5.42;100.00;101763.22;4980226;28;20035;-78
2023/03/02 01:09:53;;;;;;;11.60;5.55;;;-3.80;99.90;;;-5.48;100.00;101759.09;4997685;28;20062;-77
2023/03/02 01:12:19;;;;;;;14.10;5.85;;;-3.80;99.90;;;-5.56;100.00;101756.84;4998164;28;20134;-77
2023/03/02 01:14:49;;;;;;;13.80;5.88;;;-3.80;99.90;;;-5.57;100.00;101748.94;4976697;28;20039;-77
2023/03/02 01:17:20;;;;;;;13.82;5.93;;;-3.80;99.90;;;-5.55;100.00;101755.91;4981913;28;20034;-77
2023/03/02 01:19:47;;;;;;;13.55;5.70;;;-3.80;99.90;;;-5.57;100.00;101760.47;4974986;28;20125;-77
2023/03/02 01:22:13;;;;;;;11.60;5.60;;;-3.90;99.90;;;-5.69;100.00;101746.03;4974520;28;20039;-77
2023/03/02 01:24:39;;;;;;;10.52;5.40;;;-3.90;99.90;;;-5.40;100.00;101761.34;4978297;28;20046;-77
2023/03/02 01:27:05;;;;;;;14.25;6.53;;;-3.80;99.90;;;-5.33;100.00;101749.41;4997399;28;20044;-77
2023/03/02 01:29:31;;;;;;;11.40;5.75;;;-3.80;99.90;;;-5.30;100.00;101748.38;4988632;28;20030;-77
2023/03/02 01:31:56;;;;;;;11.35;5.65;;;-3.80;99.90;;;-5.28;100.00;101749.16;4977785;28;20134;-77
2023/03/02 01:34:22;;;;;;;11.55;5.15;;;-3.70;99.90;;;-5.33;100.00;101746.75;4974706;28;20031;-76
2023/03/02 01:36:48;;;;;;;9.52;5.40;;;-3.70;99.90;;;-5.49;100.00;101741.44;4989451;28;20118;-75
2023/03/02 01:39:14;;;;;;;12.68;6.53;;;-3.90;99.90;;;-5.67;100.00;101738.81;4976318;28;20034;-77
2023/03/02 01:41:42;;;;;;;13.63;5.93;;;-4.00;99.90;;;-5.84;100.00;101752.16;4985776;28;20486;-77
2023/03/02 01:44:50;;;;;;;14.35;5.85;;;-4.10;99.90;;;-6.03;100.00;101745.25;4979610;28;20031;-77
2023/03/02 01:47:27;;;;;;;12.38;5.60;;;-4.30;99.90;;;-6.13;100.00;101742.22;4978496;28;20516;-76
2023/03/02 01:50:23;;;;;;;10.80;5.22;;;-4.40;99.90;;;-6.24;100.00;101739.22;4958641;28;20038;-76
2023/03/02 01:52:54;;;;;;;11.23;5.50;;;-4.50;99.90;;;-6.26;100.00;101734.03;4975841;28;20897;-77
2023/03/02 01:55:28;;;;;;;17.05;6.82;;;-4.50;99.90;;;-6.28;100.00;101730.59;4980105;28;20037;-77
2023/03/02 01:57:57;;;;;;;12.93;5.18;;;-4.60;99.90;;;-6.07;100.00;101730.41;4987562;28;20054;-77
2023/03/02 02:00:28;;;;;;;14.23;5.88;;;-4.50;99.90;;;-5.81;100.00;101725.44;4984146;28;20061;-77
2023/03/02 02:03:07;;;;;;;11.32;6.05;;;-4.20;99.90;;;-5.64;100.00;101728.03;4978759;28;20027;-77
2023/03/02 02:05:39;;;;;;;13.25;6.38;;;-4.10;99.90;;;-5.41;100.00;101725.03;4983899;28;20049;-77
2023/03/02 02:08:06;;;;;;;11.73;5.65;;;-3.90;99.90;;;-5.24;100.00;101727.59;4974513;28;20030;-77
2023/03/02 02:10:34;;;;;;;15.10;6.25;;;-3.70;99.90;;;-5.12;100.00;101728.69;4974147;28;20142;-77
2023/03/02 02:13:00;;;;;;;12.73;5.38;;;-3.60;99.90;;;-4.92;100.00;101718.72;4980105;28;20044;-77
2023/03/02 02:15:26;;;;;;;13.30;6.30;;;-3.40;99.90;;;-4.81;100.00;101720.75;4985758;28;20038;-77
2023/03/02 02:17:54;;;;;;;13.40;6.00;;;-3.20;99.90;;;-4.78;100.00;101712.56;4980319;28;20494;-77
2023/03/02 02:20:35;;;;;;;;;;;-3.10;99.90;;;-4.71;100.00;101729.91;4980295;28;20029;-78
2023/03/02 02:23:28;;;;;;;10.88;5.32;;;-3.10;99.90;;;-4.71;100.00;101721.06;4990909;28;19926;-78
2023/03/02 02:26:11;;;;;;;11.40;5.68;;;-3.00;99.90;;;-4.72;100.00;101720.19;4987636;28;20062;-78
2023/03/02 02:28:47;;;;;;;16.73;6.70;;;-3.00;99.90;;;-4.62;100.00;101725.84;4975979;28;20041;-78
2023/03/02 02:31:19;;;;;;;10.75;5.82;;;-2.90;99.90;;;-4.51;100.00;101722.53;4974306;28;20038;-78
2023/03/02 02:34:01;;;;;;;12.60;6.20;;;-2.80;99.90;;;-4.46;100.00;101724.94;4974861;28;20081;-78
2023/03/02 02:36:36;;;;;;;11.68;5.72;;;-2.80;99.90;;;-4.65;100.00;101724.19;4979358;28;20035;-78
2023/03/02 02:39:11;;;;;;;;;;;-2.90;99.90;;;-4.79;100.00;101724.19;4988199;28;20035;-78
2023/03/02 02:41:41;;;;;;;12.45;6.43;;;-3.00;99.90;;;-4.85;100.00;101720.06;4970203;28;19925;-77
2023/03/02 02:44:14;;;;;;;15.60;6.47;;;-3.20;99.90;;;-4.94;100.00;101717.94;4976263;28;20106;-78
2023/03/02 02:46:40;;;;;;;13.50;6.82;;;-3.30;99.90;;;-4.97;100.00;101707.47;4983347;28;20117;-78
2023/03/02 02:49:38;;;;;;;14.65;6.80;;;-3.30;99.90;;;-4.92;100.00;101719.56;4976933;28;20153;-76
2023/03/02 02:52:05;;;;;;;16.35;7.60;;;-3.30;99.90;;;-4.80;100.00;101723.31;4973658;28;20039;-77
2023/03/02 02:54:36;;;;;;;15.27;7.63;;;-3.20;99.90;;;-4.88;100.00;101714.91;4973131;28;20038;-76
2023/03/02 02:57:04;;;;;;;13.60;6.75;;;-3.20;99.90;;;-4.79;100.00;101722.34;4990472;28;20100;-77
2023/03/02 02:59:45;;;;;;;17.55;8.38;;;-3.20;99.90;;;-4.80;100.00;101717.97;4979783;28;20041;-77
2023/03/02 03:02:20;;;;;;;18.65;8.07;;;-3.10;99.90;;;-4.66;100.00;101716.31;4990657;28;20077;-77
2023/03/02 03:04:47;;;;;;;15.80;8.25;;;-3.00;99.90;;;-4.71;100.00;101715.75;4990119;28;20470;-77
2023/03/02 03:07:21;;;;;;;18.25;8.07;;;-3.00;99.90;;;-4.82;100.00;101714.53;5002609;28;20038;-76
2023/03/02 03:10:13;;;;;;;18.10;8.40;;;-3.10;99.90;;;-4.85;100.00;101711.22;4972551;28;20031;-76
2023/03/02 03:12:39;;;;;;;18.50;8.82;;;-3.10;99.90;;;-4.88;100.00;101704.25;4987827;28;20034;-77
2023/03/02 03:15:08;;;;;;;18.52;9.13;;;-3.10;99.90;;;-4.81;100.00;101699.44;4975367;28;20035;-76
2023/03/02 03:17:34;;;;;;;17.75;8.60;;;-3.10;99.90;;;-4.81;100.00;101700.28;4980269;28;20177;-76
2023/03/02 03:20:07;;;;;;;21.95;9.50;;;-3.10;99.90;;;-4.67;100.00;101698.63;4984741;28;20453;-76
2023/03/02 03:22:38;;;;;;;21.33;9.73;;;-3.00;99.90;;;-4.66;100.00;101692.34;4977449;28;20038;-76
2023/03/02 03:25:06;;;;;;;21.63;9.63;;;-3.00;99.90;;;-4.64;100.00;101682.47;4972895;28;20412;-76
2023/03/02 03:27:32;;;;;;;26.67;11.77;;;-2.90;99.90;;;-4.52;100.00;101697.69;4973202;28;20046;-76
2023/03/02 03:30:00;;;;;;;31.88;11.70;;;-2.80;99.90;;;-4.52;100.00;101689.69;4971986;28;20046;-76
2023/03/02 03:32:28;;;;;;;22.83;11.18;;;-2.80;99.90;;;-4.54;100.00;101674.78;4973467;28;20071;-77
2023/03/02 03:34:55;;;;;;;27.42;12.45;;;-2.70;99.90;;;-4.40;100.00;101688.09;4994727;28;20034;-77
2023/03/02 03:37:26;;;;;;;28.88;12.25;;;-2.60;99.90;;;-4.38;100.00;101688.00;4970782;28;20031;-76
2023/03/02 03:39:52;;;;;;;29.02;12.70;;;-2.60;99.90;;;-4.38;100.00;101691.53;4978258;28;20038;-76
2023/03/02 03:42:22;;;;;;;30.63;13.20;;;-2.60;99.90;;;-4.13;100.00;101695.34;4963894;28;20037;-76
2023/03/02 03:44:50;;;;;;;37.17;14.25;;;-2.50;99.90;;;-4.07;100.00;101697.66;4989059;28;20509;-77
2023/03/02 03:47:16;;;;;;;40.00;15.18;;;-2.40;99.90;;;-4.00;100.00;101695.44;4982860;28;20034;-75
2023/03/02 03:49:42;;;;;;;40.17;15.52;;;-2.20;99.90;;;-3.93;100.00;101698.59;4975071;28;20045;-76
2023/03/02 03:52:09;;;;;;;39.55;17.17;;;-2.10;99.90;;;-3.89;100.00;101697.44;4972720;28;20038;-77
2023/03/02 03:54:35;;;;;;;44.47;17.15;;;-2.10;99.90;;;-3.76;100.00;101700.19;4980736;28;20053;-77
2023/03/02 03:57:01;;;;;;;57.47;18.73;;;-2.00;99.90;;;-3.84;100.00;101678.50;4978797;28;20038;-77
2023/03/02 03:59:28;;;;;;;48.92;19.88;;;-2.00;99.90;;;-3.76;100.00;101692.19;4994300;28;20479;-76
2023/03/02 04:02:00;;;;;;;61.63;21.02;;;-1.90;99.90;;;-3.64;100.00;101693.22;4978191;28;20039;-76
2023/03/02 04:04:45;;;;;;;56.20;21.10;;;-1.90;99.90;;;-3.57;100.00;101701.69;4982604;28;20027;-77
2023/03/02 04:07:14;;;;;;;54.65;20.23;;;-1.80;99.90;;;-3.50;100.00;101700.34;4979974;28;20490;-76
2023/03/02 04:09:42;;;;;;;63.35;21.90;;;-1.70;99.90;;;-3.44;100.00;101701.75;4976884;28;20041;-77
2023/03/02 04:12:11;;;;;;;51.47;21.13;;;-1.70;99.90;;;-3.37;100.00;101693.25;4997601;28;20057;-76
2023/03/02 04:14:39;;;;;;;67.60;22.23;;;-1.60;99.90;;;-3.27;100.00;101695.31;4986746;28;20057;-76
2023/03/02 04:17:06;;;;;;;71.15;23.48;;;-1.50;99.90;;;-3.21;100.00;101686.91;4984753;28;20041;-76
2023/03/02 04:19:36;;;;;;;81.63;22.05;;;-1.40;99.90;;;-3.15;100.00;101690.97;4984971;28;20042;-76
2023/03/02 04:22:03;;;;;;;74.47;21.75;;;-1.40;99.90;;;-3.04;100.00;101692.00;4971202;28;20045;-76
2023/03/02 04:24:33;;;;;;;62.35;23.23;;;-1.30;99.90;;;-3.06;100.00;101688.56;4977536;28;20193;-75
2023/03/02 04:27:02;;;;;;;89.68;23.73;;;-1.30;99.90;;;-3.00;100.00;101689.09;4987488;28;20042;-76
2023/03/02 04:29:28;;;;;;;56.38;21.80;;;-1.20;99.90;;;-2.93;100.00;101691.28;4995404;28;20034;-76
2023/03/02 04:31:54;;;;;;;57.47;22.73;;;-1.20;99.90;;;-2.93;100.00;101677.91;4976463;28;20046;-77
2023/03/02 04:34:22;;;;;;;66.07;22.73;;;-1.10;99.90;;;-2.90;100.00;101680.38;4973024;28;20046;-76
2023/03/02 04:36:50;;;;;;;59.60;23.38;;;-1.10;99.90;;;-2.83;100.00;101672.81;4977117;28;20027;-76
2023/03/02 04:39:19;;;;;;;59.55;23.10;;;-1.10;99.90;;;-2.76;100.00;101681.28;5002437;28;20038;-74
2023/03/02 04:41:49;;;;;;;59.17;22.42;;;-1.00;99.90;;;-2.81;100.00;101678.91;4975087;28;20122;-76
2023/03/02 04:44:16;;;;;;;56.25;23.17;;;-1.00;99.90;;;-2.75;100.00;101670.47;4979170;28;20035;-77
2023/03/02 04:46:42;;;;;;;57.03;22.90;;;-1.00;99.90;;;-2.72;100.00;101676.56;4987983;28;20125;-77
2023/03/02 04:49:09;;;;;;;49.78;22.15;;;-0.90;99.90;;;-2.70;100.00;101690.66;4962040;28;20307;-76
2023/03/02 04:51:40;;;;;;;59.40;23.67;;;-1.00;99.90;;;-2.70;100.00;101677.31;4983154;28;20035;-77
2023/03/02 04:54:16;;;;;;;56.75;22.13;;;-0.90;99.90;;;-2.70;100.00;101679.97;4979515;28;20030;-77
2023/03/02 04:56:50;;;;;;;56.00;22.42;;;-0.90;99.90;;;-2.69;100.00;101676.34;4985791;28;20050;-77
2023/03/02 04:59:19;;;;;;;55.33;22.67;;;-0.90;99.90;;;-2.69;100.00;101674.53;4974339;28;20382;-78
2023/03/02 05:01:46;;;;;;;58.15;23.48;;;-1.00;99.90;;;-2.69;100.00;101674.53;4976912;28;20109;-77
2023/03/02 05:04:12;;;;;;;63.33;23.17;;;-0.90;99.90;;;-2.69;100.00;101663.00;4979280;28;20482;-79
2023/03/02 05:06:38;;;;;;;54.67;23.10;;;-0.90;99.90;;;-2.66;100.00;101657.44;4981155;28;20498;-79
2023/03/02 05:09:05;;;;;;;58.63;22.38;;;-0.90;99.90;;;-2.62;100.00;101657.13;4985991;28;20038;-79
2023/03/02 05:11:31;;;;;;;58.17;21.75;;;-0.90;99.90;;;-2.57;100.00;101654.16;4980837;28;20050;-79
2023/03/02 05:14:01;;;;;;;51.13;22.83;;;-0.80;99.90;;;-2.57;100.00;101643.47;4992388;28;20038;-78
2023/03/02 05:16:30;;;;;;;62.50;23.48;;;-0.80;99.90;;;-2.52;100.00;101652.00;4987270;28;20117;-78
2023/03/02 05:18:58;;;;;;;55.03;22.33;;;-0.80;99.90;;;-2.54;100.00;101645.03;4977694;28;20049;-79
2023/03/02 05:21:25;;;;;;;;;;;-0.80;99.90;;;-2.51;100.00;101643.03;4988048;28;20066;-78
2023/03/02 05:23:51;;;;;;;58.65;19.38;;;-0.70;99.90;;;-2.49;100.00;101641.09;4976937;28;20301;-77
2023/03/02 05:26:18;;;;;;;54.65;20.92;;;-0.80;99.90;;;-2.52;100.00;101638.63;4977047;28;20136;-77
2023/03/02 05:28:44;;;;;;;62.42;21.73;;;-0.80;99.90;;;-2.53;100.00;101636.94;4985881;28;20149;-77
2023/03/02 05:31:35;;;;;;;60.15;23.08;;;-0.80;99.90;;;-2.52;100.00;101640.44;4983803;28;20402;-77
2023/03/02 05:34:05;;;;;;;51.83;19.77;;;-0.80;99.90;;;-2.43;100.00;101650.50;5000666;28;20101;-77
2023/03/02 05:36:31;;;;;;;47.67;20.58;;;-0.70;99.90;;;-2.53;100.00;101642.28;4989222;28;20034;-77
2023/03/02 05:38:57;;;;;;;49.40;21.35;;;-0.80;99.90;;;-2.46;100.00;101643.56;4997173;28;20041;-77
2023/03/02 05:41:23;;;;;;;52.17;20.13;;;-0.70;99.90;;;-2.51;100.00;101648.38;4976863;28;20043;-76
2023/03/02 05:43:49;;;;;;;54.70;21.00;;;-0.70;99.90;;;-2.50;100.00;101655.41;4984566;28;20058;-76
2023/03/02 05:46:16;;;;;;;48.22;20.92;;;-0.80;99.90;;;-2.51;100.00;101652.88;4981031;28;20031;-77
2023/03/02 05:48:41;;;;;;;44.95;20.45;;;-0.80;99.90;;;-2.52;100.00;101652.00;4987044;28;20058;-77
2023/03/02 05:51:08;;;;;;;50.00;20.95;;;-0.80;99.90;;;-2.48;100.00;101648.16;4990264;28;20062;-79
2023/03/02 05:53:36;;;;;;;48.08;20.90;;;-0.70;99.90;;;-2.45;100.00;101647.09;4986527;28;20042;-76
2023/03/02 05:56:03;;;;;;;49.88;21.15;;;-0.70;99.90;;;-2.48;100.00;101653.50;4975199;28;20062;-78
2023/03/02 05:58:29;;;;;;;47.25;20.55;;;-0.70;99.90;;;-2.48;100.00;101658.84;4977427;28;20087;-78
2023/03/02 06:00:54;;;;;;;49.80;20.98;;;-0.70;99.90;;;-2.51;100.00;101658.22;4982090;28;20047;-78
2023/03/02 06:03:20;;;;;;;46.15;19.95;;;-0.80;99.90;;;-2.50;100.00;101658.09;4981349;28;20421;-79
2023/03/02 06:05:51;;;;;;;53.00;21.15;;;-0.70;99.90;;;-2.46;100.00;101662.25;4984722;28;20039;-79
2023/03/02 06:08:20;;;;;;;49.55;20.15;;;-0.70;99.90;;;-2.46;100.00;101664.94;4983487;28;20035;-78
2023/03/02 06:10:46;;;;;;;53.33;20.48;;;-0.70;99.90;;;-2.44;100.00;101677.34;4979836;28;20042;-78
2023/03/02 06:13:12;;;;;;;47.75;20.02;;;-0.70;99.90;;;-2.40;100.00;101670.81;4976138;28;20114;-77
2023/03/02 06:15:39;;;;;;;51.83;21.27;;;-0.70;99.90;;;-2.43;100.00;101671.03;4982048;28;20039;-78
2023/03/02 06:18:05;;;;;;;51.75;21.63;;;-0.70;99.90;;;-2.41;100.00;101680.66;4978448;28;20121;-77
2023/03/02 06:20:31;;;;;;;50.15;20.67;;;-0.70;99.90;;;-2.36;100.00;101685.69;4985106;28;20042;-77
2023/03/02 06:22:57;;;;;;;87.65;21.98;;;-0.60;99.90;;;-2.36;100.00;101688.38;4991355;28;20044;-79
2023/03/02 06:25:24;;;;;;;81.60;22.52;;;-0.60;99.90;;;-2.39;100.00;101691.22;4977358;28;20038;-78
2023/03/02 06:27:52;;;;;;;71.22;19.92;;;-0.60;99.90;;;-2.41;100.00;101687.81;4993609;28;20130;-78
2023/03/02 06:30:22;;;;;;;52.50;21.05;;;-0.60;99.90;;;-2.42;100.00;101699.47;4976044;28;20035;-77
2023/03/02 06:32:49;;;;;;;50.50;19.75;;;-0.70;99.90;;;-2.43;100.00;101705.78;4987442;28;20050;-81
2023/03/02 06:35:15;;;;;;;50.70;20.13;;;-0.70;99.90;;;-2.38;100.00;101707.19;4980244;28;20034;-79
2023/03/02 06:37:41;;;;;;;63.47;21.63;;;-0.60;99.90;;;-2.42;100.00;101700.34;4983895;28;20074;-80
2023/03/02 06:40:09;;;;;;;54.50;20.80;;;-0.70;99.90;;;-2.43;100.00;101709.31;4978318;28;20042;-79
2023/03/02 06:42:37;;;;;;;48.05;20.10;;;-0.70;99.90;;;-2.39;100.00;101705.47;4996761;28;20046;-78
2023/03/02 06:45:05;;;;;;;47.58;20.60;;;-0.70;99.90;;;-2.38;100.00;101707.19;4975902;28;20035;-77
2023/03/02 06:47:32;;;;;;;65.63;20.13;;;-0.60;99.90;;;-2.38;100.00;101709.00;4991933;28;20041;-77
2023/03/02 06:49:58;;;;;;;49.13;20.83;;;-0.60;99.90;;;-2.39;100.00;101709.94;4981721;28;20097;-77
2023/03/02 06:52:26;;;;;;;45.72;18.88;;;-0.60;99.90;;;-2.39;100.00;101709.94;4981928;28;20045;-75
2023/03/02 06:54:53;;;;;;;54.20;18.95;;;-0.60;99.90;;;-2.46;100.00;101696.16;4989672;28;20030;-75
2023/03/02 06:57:19;;;;;;;61.73;19.30;;;-0.60;99.90;;;-2.41;100.00;101699.38;4981929;28;20118;-79
2023/03/02 06:59:44;;;;;;;58.22;19.85;;;-0.60;99.90;;;-2.38;100.00;101699.16;4977746;28;20288;-78
2023/03/02 07:02:11;;;;;;;46.30;18.73;;;-0.60;99.90;;;-2.42;100.00;101695.00;4993544;28;20046;-79
2023/03/02 07:04:37;;;;;;;54.40;20.60;;;-0.60;99.90;;;-2.30;100.00;101698.63;4979465;28;20070;-78
2023/03/02 07:07:03;;;;;;;50.92;20.52;;;-0.50;99.90;;;-2.26;100.00;101700.13;4991334;28;20034;-78
2023/03/02 07:09:32;;;;;;;43.03;19.02;;;-0.50;99.90;;;-2.19;100.00;101696.06;4979158;28;20415;-77
2023/03/02 07:12:01;;;;;;;66.20;20.20;;;-0.50;99.90;;;-2.16;100.00;101705.69;4985008;28;20034;-79
2023/03/02 07:14:27;;;;;;;75.28;19.92;;;-0.40;99.90;;;-2.18;100.00;101695.09;4997016;28;20086;-78
2023/03/02 07:16:56;;;;;;;61.63;20.45;;;-0.40;99.90;;;-2.23;100.00;101697.22;4983514;28;20041;-77
2023/03/02 07:19:22;;;;;;;43.95;19.75;;;-0.40;99.90;;;-2.17;100.00;101694.13;4974997;28;20494;-76
2023/03/02 07:21:47;;;;;;;42.17;18.17;;;-0.40;99.90;;;-2.05;100.00;101692.41;4974841;28;20089;-77
2023/03/02 07:24:13;;;;;;;52.58;19.85;;;-0.30;99.90;;;-2.02;100.00;101670.78;4985233;28;20426;-77
2023/03/02 07:26:39;;;;;;;60.75;19.83;;;-0.20;99.90;;;-1.90;100.00;101681.59;4973800;28;20035;-78
2023/03/02 07:29:05;;;;;;;45.25;18.65;;;-0.10;99.90;;;-2.05;100.00;101683.53;4991588;28;20386;-78
2023/03/02 07:31:34;;;;;;;42.38;18.98;;;-0.20;99.90;;;-1.95;100.00;101681.06;4982694;28;20041;-78
2023/03/02 07:33:59;;;;;;;52.92;20.05;;;-0.20;99.90;;;-1.83;100.00;101674.81;4979815;28;20038;-78
2023/03/02 07:36:28;;;;;;;48.30;20.40;;;-0.10;99.90;;;-1.72;100.00;101687.44;4983177;28;20038;-78
2023/03/02 07:39:00;;;;;;;65.45;19.33;;;0.00;99.90;;;-1.83;100.00;101682.84;4974308;28;20489;-79
2023/03/02 07:41:47;;;;;;;46.95;17.85;;;0.00;99.90;;;-1.75;100.00;101682.31;4992867;28;20158;-78
2023/03/02 07:44:22;;;;;;;56.45;19.60;;;0.00;99.90;;;-1.69;100.00;101694.41;4995727;28;20033;-78
2023/03/02 07:46:50;;;;;;;54.20;18.85;;;0.10;99.90;;;-1.74;100.00;101692.03;4988498;28;20497;-78
2023/03/02 07:49:19;;;;;;;45.42;18.45;;;0.00;99.90;;;-1.75;100.00;101693.84;5008262;28;20053;-79
2023/03/02 07:51:45;;;;;;;41.97;18.13;;;0.10;99.90;;;-1.56;100.00;101687.19;4972030;28;20042;-79
2023/03/02 07:54:11;;;;;;;40.53;18.77;;;0.20;99.90;;;-1.28;100.00;101681.63;4971870;28;20039;-77
2023/03/02 07:56:37;;;;;;;38.22;18.27;;;0.40;99.90;;;-1.17;100.00;101676.31;4972181;28;20060;-78
2023/03/02 07:59:03;;;;;;;40.20;18.20;;;0.50;99.90;;;-1.00;100.00;101691.13;4978620;28;20109;-79
2023/03/02 08:01:29;;;;;;;40.75;18.08;;;0.70;99.90;;;-0.94;100.00;101689.81;4980857;28;20138;-79
2023/03/02 08:03:55;;;;;;;36.13;17.80;;;0.80;99.90;;;-0.99;100.00;101689.31;4978762;28;20121;-78
2023/03/02 08:06:21;;;;;;;33.55;15.98;;;0.80;99.90;;;-0.91;100.00;101705.66;4985844;28;20042;-79
2023/03/02 08:08:48;;;;;;;39.63;16.77;;;0.80;99.90;;;-1.04;100.00;101701.22;4984459;28;20049;-79
2023/03/02 08:11:18;;;;;;;34.42;15.98;;;0.80;99.90;;;-1.04;100.00;101719.13;4969829;28;20045;-77
2023/03/02 08:13:45;;;;;;;34.90;16.67;;;0.80;99.90;;;-1.07;100.00;101711.31;4973309;28;20058;-78
2023/03/02 08:16:14;;;;;;;30.73;14.20;;;0.70;99.90;;;-1.06;100.00;101719.25;4986339;28;20089;-79
2023/03/02 08:18:41;;;;;;;33.78;15.25;;;0.70;99.90;;;-1.00;100.00;101719.75;4987894;28;20397;-79
2023/03/02 08:21:17;;;;;;;35.15;14.23;;;0.70;99.90;;;-0.97;100.00;101722.19;4996969;28;20044;-79
2023/03/02 08:23:43;;;;;;;39.17;15.68;;;0.80;99.90;;;-1.02;100.00;101722.53;4990744;28;20038;-78
2023/03/02 08:26:10;;;;;;;35.60;15.90;;;0.80;99.90;;;-0.91;100.00;101727.09;4978018;28;20042;-79
2023/03/02 08:28:38;;;;;;;29.35;14.85;;;0.90;99.90;;;-0.92;100.00;101717.34;4985169;28;20066;-79
2023/03/02 08:31:06;;;;;;;35.47;15.52;;;0.90;99.90;;;-0.77;100.00;101718.00;4975083;28;20426;-79
2023/03/02 08:33:33;;;;;;;33.38;13.88;;;1.00;99.90;;;-0.88;100.00;101711.66;4978950;28;20035;-79
2023/03/02 08:36:07;;;;;;;31.38;15.07;;;1.00;99.90;;;-0.70;100.00;101716.56;4976566;28;20882;-79
2023/03/02 08:38:34;;;;;;;30.25;14.35;;;1.00;99.90;;;-0.55;100.00;101722.59;4969418;28;20046;-78
2023/03/02 08:41:13;;;;;;;28.35;15.45;;;1.20;99.90;;;-0.54;100.00;101726.13;4974319;28;20110;-79
2023/03/02 08:43:39;;;;;;;37.97;13.93;;;1.30;99.90;;;-0.50;100.00;101724.94;4977632;28;20214;-79
2023/03/02 08:46:09;;;;;;;33.97;13.55;;;1.30;99.90;;;-0.60;100.00;101735.50;4985854;28;20039;-79
2023/03/02 08:48:38;;;;;;;27.83;14.32;;;1.20;99.90;;;-0.75;100.00;101726.78;4993046;28;20101;-80
2023/03/02 08:51:17;;;;;;;25.92;14.40;;;1.10;99.90;;;-0.72;100.00;101729.22;4994888;28;20034;-79
2023/03/02 08:53:49;;;;;;;33.47;14.55;;;1.10;99.90;;;-0.65;100.00;101730.50;4977534;28;20038;-79
2023/03/02 08:56:29;;;;;;;28.00;15.13;;;1.20;99.90;;;-0.48;100.00;101733.69;4977130;28;20061;-79
2023/03/02 08:58:59;;;;;;;32.90;13.70;;;1.30;99.90;;;-0.49;100.00;101737.34;4975674;28;20023;-80
2023/03/02 09:01:29;;;;;;;33.97;14.77;;;1.30;99.90;;;-0.54;100.00;101721.59;4982151;28;20044;-80
2023/03/02 09:03:56;;;;;;;27.92;14.02;;;1.30;99.90;;;-0.64;100.00;101747.41;4969150;28;20371;-82
2023/03/02 09:06:22;;;;;;;25.23;13.73;;;1.30;99.90;;;-0.49;100.00;101737.34;4971636;28;20101;-79
2023/03/02 09:08:49;;;;;;;27.15;14.15;;;1.30;99.90;;;-0.30;100.00;101739.47;4975740;28;20122;-79
2023/03/02 09:11:15;;;;;;;28.73;13.45;;;1.40;99.90;;;-0.50;100.00;101728.47;4971805;28;20022;-79
2023/03/02 09:13:42;;;;;;;27.33;13.45;;;1.40;99.90;;;-0.66;100.00;101727.91;4979186;28;20567;-79
2023/03/02 09:16:19;;;;;;;32.75;14.13;;;1.20;99.90;;;-0.62;100.00;101730.25;4983024;28;20045;-80
2023/03/02 09:18:47;;;;;;;27.83;13.88;;;1.30;99.90;;;-0.67;100.00;101731.56;4971068;28;20045;-81
2023/03/02 09:21:13;;;;;;;31.85;14.13;;;1.20;99.90;;;-0.77;100.00;101731.41;4976825;28;20031;-81
2023/03/02 09:23:39;;;;;;;28.50;13.05;;;1.10;99.90;;;-0.64;100.00;101721.50;4976969;28;20126;-79
2023/03/02 09:26:11;;;;;;;30.80;13.80;;;1.20;99.90;;;-0.46;100.00;101734.44;4974117;28;20504;-81
2023/03/02 09:28:37;;;;;;;23.63;12.80;;;1.30;99.90;;;-0.48;100.00;101722.97;5000509;28;20035;-80
2023/03/02 09:31:07;;;;;;;28.25;13.77;;;1.40;99.90;;;-0.25;100.00;101728.41;4982185;28;20062;-80
2023/03/02 09:33:33;;;;;;;28.25;14.10;;;1.50;99.90;;;-0.23;100.00;101727.31;4977404;28;20066;-80
2023/03/02 09:36:00;;;;;;;28.05;13.38;;;1.60;99.90;;;-0.24;100.00;101735.47;4983602;28;20447;-80
2023/03/02 09:38:26;;;;;;;29.73;12.85;;;1.60;99.90;;;-0.10;100.00;101737.94;4979312;28;20107;-80
2023/03/02 09:41:19;;;;;;;27.42;13.07;;;1.70;99.90;;;-0.01;100.00;101739.03;4986611;28;20047;-80
2023/03/02 09:44:03;;;;;;;22.80;12.57;;;1.80;99.90;;;-0.04;100.00;101740.13;4985749;28;20108;-80
2023/03/02 09:46:48;;;;;;;23.63;11.48;;;1.80;99.90;;;-0.17;100.00;101724.16;4987917;28;20037;-79
2023/03/02 09:49:27;;;;;;;22.25;11.55;;;1.70;99.90;;;0.10;100.00;101741.72;4985565;28;20509;-79
2023/03/02 09:52:26;;;;;;;21.27;11.60;;;1.80;99.90;;;0.30;100.00;101739.31;4983546;28;20493;-80
2023/03/02 09:54:52;;;;;;;20.17;11.15;;;2.10;99.90;;;0.30;100.00;101743.81;4973983;28;20426;-78
2023/03/02 09:57:24;;;;;;;20.55;11.25;;;2.10;99.90;;;0.57;100.00;101740.75;4980965;28;20069;-80
2023/03/02 09:59:58;;;;;;;21.70;11.90;;;2.30;99.90;;;0.78;100.00;101729.22;4974027;28;20063;-80
2023/03/02 10:02:35;;;;;;;19.92;11.50;;;2.40;99.90;;;0.94;100.00;101729.66;4985158;28;20046;-81
2023/03/02 10:05:12;;;;;;;18.08;10.13;;;2.70;99.90;;;1.13;100.00;101725.47;4986840;28;20121;-82
2023/03/02 10:07:38;;;;;;;19.30;11.48;;;2.90;99.90;;;0.94;100.00;101718.91;4986387;28;20070;-82